Archival Weather

Norman Y Mineta San Jose Intl

San Jose, California (KSJC)

Report from: Wednesday, February 7, 2024 2:53 AM PST
Current time: Monday, June 24, 2024 2:52 AM PDT

Current weather – Weather history – Daily summaries
Weather forecast

Temperature10.0°C (50.0°F)
Dew point4.4°C (39.9°F)
Winds Calm
Visibility10 mi. (16.1 km)
Clouds Sky clear
Altimeter29.81 in.Hg (1009 mB)
Relative humidity68 %
Density altitude-341 ft. (-104 m)
Sea-level pressure100.9 kPa (1009 mB, 29.80 in.Hg)
Remarks Fully automated report
Automated weather observing station with precipitation discriminator
Flight conditions Visual Meteorological Conditions
Raw dataKSJC 071053Z AUTO 00000KT 10SM CLR 10/04 A2981 RMK AO2 SLP093 T01000044
An error has occurred. This application may no longer respond until reloaded. Reload 🗙